Time,TemperatureF,DewpointF,PressureIn,WindDirection,WindDirectionDegrees,WindSpeedMPH,WindSpeedGustMPH,Humidity,HourlyPrecipIn,Conditions,Clouds,dailyrainin,SoftwareType,DateUTC
2013-10-12 00:14:00,62.0,46.0,30.11,NE,35,7.0,11.0,55,0.00,,,0.00,,2013-10-12 04:14:00,
2013-10-12 01:23:00,60.0,39.0,30.12,NNW,340,6.0,13.0,46,0.00,,,0.00,,2013-10-12 05:23:00,
2013-10-12 01:43:00,60.0,39.0,30.12,NE,44,7.0,11.0,46,0.00,,,0.00,,2013-10-12 05:43:00,
2013-10-12 01:52:00,60.0,41.0,30.11,NE,51,7.0,12.0,49,0.00,,,0.00,,2013-10-12 05:52:00,
2013-10-12 02:12:00,60.0,41.0,30.12,NNE,22,3.0,9.0,50,0.00,,,0.00,,2013-10-12 06:12:00,
2013-10-12 02:22:00,59.0,41.0,30.12,NE,48,6.0,13.0,52,0.00,,,0.00,,2013-10-12 06:22:00,
2013-10-12 02:42:00,59.0,42.0,30.13,North,6,5.0,10.0,53,0.00,,,0.00,,2013-10-12 06:42:00,
2013-10-12 02:52:00,59.0,42.0,30.13,NNE,24,6.0,13.0,54,0.00,,,0.00,,2013-10-12 06:52:00,
2013-10-12 03:12:00,59.0,42.0,30.13,North,354,6.0,12.0,53,0.00,,,0.00,,2013-10-12 07:12:00,
2013-10-12 03:22:00,59.0,42.0,30.13,North,355,5.0,13.0,53,0.00,,,0.00,,2013-10-12 07:22:00,
2013-10-12 03:42:00,59.0,41.0,30.13,NE,44,8.0,14.0,52,0.00,,,0.00,,2013-10-12 07:42:00,
2013-10-12 03:52:00,59.0,42.0,30.13,NE,47,8.0,14.0,54,0.00,,,0.00,,2013-10-12 07:52:00,
2013-10-12 04:12:00,59.0,43.0,30.13,NE,42,9.0,15.0,56,0.00,,,0.00,,2013-10-12 08:12:00,
2013-10-12 04:22:00,58.0,43.0,30.14,NNE,32,8.0,13.0,58,0.00,,,0.00,,2013-10-12 08:22:00,
2013-10-12 04:42:00,58.0,45.0,30.14,NE,34,5.0,11.0,61,0.00,,,0.00,,2013-10-12 08:42:00,
2013-10-12 04:52:00,58.0,45.0,30.14,North,357,6.0,11.0,62,0.00,,,0.00,,2013-10-12 08:52:00,
2013-10-12 05:11:00,58.0,45.0,30.14,NNE,22,6.0,12.0,62,0.00,,,0.00,,2013-10-12 09:11:00,
2013-10-12 05:22:00,58.0,47.0,30.14,NNE,30,5.0,11.0,66,0.00,,,0.00,,2013-10-12 09:22:00,
2013-10-12 05:43:00,58.0,47.0,30.15,ENE,70,5.0,12.0,67,0.00,,,0.00,,2013-10-12 09:43:00,
2013-10-12 05:54:00,58.0,47.0,30.15,NNE,18,5.0,16.0,68,0.00,,,0.00,,2013-10-12 09:54:00,
2013-10-12 06:12:00,58.0,48.0,30.15,NNE,24,3.0,11.0,70,0.00,,,0.00,,2013-10-12 10:12:00,
2013-10-12 06:23:00,58.0,48.0,30.16,NE,37,4.0,9.0,70,0.00,,,0.00,,2013-10-12 10:23:00,
2013-10-12 06:42:00,58.0,49.0,30.16,NNE,33,8.0,14.0,71,0.00,,,0.00,,2013-10-12 10:42:00,
2013-10-12 06:53:00,58.0,49.0,30.16,ENE,58,8.0,11.0,72,0.00,,,0.00,,2013-10-12 10:53:00,
2013-10-12 07:12:00,58.0,49.0,30.16,NE,48,7.0,12.0,72,0.00,,,0.00,,2013-10-12 11:12:00,
2013-10-12 07:22:00,58.0,49.0,30.17,NNE,27,4.0,10.0,73,0.00,,,0.00,,2013-10-12 11:22:00,
2013-10-12 07:42:00,58.0,49.0,30.17,NNE,21,9.0,14.0,73,0.00,,,0.00,,2013-10-12 11:42:00,
2013-10-12 07:52:00,59.0,50.0,30.17,NE,50,8.0,17.0,73,0.00,,,0.00,,2013-10-12 11:52:00,
2013-10-12 08:11:00,59.0,51.0,30.18,ENE,68,9.0,15.0,74,0.00,,,0.00,,2013-10-12 12:11:00,
2013-10-12 08:22:00,59.0,51.0,30.18,NNW,348,9.0,19.0,74,0.00,,,0.00,,2013-10-12 12:22:00,
2013-10-12 08:42:00,59.0,51.0,30.19,NE,42,11.0,18.0,74,0.00,,,0.00,,2013-10-12 12:42:00,
2013-10-12 08:52:00,60.0,52.0,30.19,NE,53,12.0,20.0,75,0.00,,,0.00,,2013-10-12 12:52:00,
2013-10-12 09:11:00,60.0,52.0,30.19,NE,36,10.0,20.0,76,0.00,,,0.00,,2013-10-12 13:11:00,
2013-10-12 09:22:00,60.0,53.0,30.20,NE,49,15.0,20.0,77,0.00,,,0.00,,2013-10-12 13:22:00,
2013-10-12 09:42:00,60.0,53.0,30.20,NE,42,11.0,18.0,78,0.00,,,0.00,,2013-10-12 13:42:00,
2013-10-12 09:52:00,61.0,54.0,30.20,NE,51,10.0,17.0,77,0.00,,,0.00,,2013-10-12 13:52:00,
2013-10-12 10:12:00,62.0,54.0,30.20,NE,34,15.0,22.0,76,0.00,,,0.00,,2013-10-12 14:12:00,
2013-10-12 10:21:00,62.0,54.0,30.20,North,351,10.0,22.0,76,0.00,,,0.00,,2013-10-12 14:21:00,
2013-10-12 10:42:00,62.0,54.0,30.20,ENE,64,12.0,22.0,74,0.00,,,0.00,,2013-10-12 14:42:00,
2013-10-12 10:52:00,63.0,53.0,30.20,NE,41,14.0,26.0,70,0.00,,,0.00,,2013-10-12 14:52:00,
2013-10-12 11:11:00,64.0,52.0,30.21,ENE,65,14.0,26.0,66,0.00,,,0.00,,2013-10-12 15:11:00,
2013-10-12 11:22:00,65.0,53.0,30.22,NE,42,17.0,29.0,64,0.00,,,0.00,,2013-10-12 15:22:00,
2013-10-12 11:43:00,66.0,54.0,30.23,NE,48,12.0,24.0,65,0.00,,,0.00,,2013-10-12 15:43:00,
2013-10-12 11:54:00,65.0,53.0,30.23,NE,52,13.0,27.0,65,0.00,,,0.00,,2013-10-12 15:54:00,
2013-10-12 12:13:00,66.0,54.0,30.23,ENE,57,11.0,27.0,66,0.00,,,0.00,,2013-10-12 16:13:00,
2013-10-12 12:23:00,66.0,53.0,30.24,NE,39,18.0,26.0,62,0.00,,,0.00,,2013-10-12 16:23:00,
2013-10-12 12:43:00,67.0,54.0,30.23,East,84,13.0,25.0,62,0.00,,,0.00,,2013-10-12 16:43:00,
2013-10-12 12:53:00,67.0,52.0,30.23,NE,50,13.0,21.0,58,0.00,,,0.00,,2013-10-12 16:53:00,
2013-10-12 13:13:00,67.0,52.0,30.22,NE,45,12.0,28.0,59,0.00,,,0.00,,2013-10-12 17:13:00,
2013-10-12 13:23:00,67.0,54.0,30.23,NE,44,17.0,27.0,63,0.00,,,0.00,,2013-10-12 17:23:00,
2013-10-12 13:42:00,66.0,53.0,30.22,ENE,62,15.0,27.0,62,0.00,,,0.00,,2013-10-12 17:42:00,
2013-10-12 13:53:00,66.0,55.0,30.22,NE,48,13.0,25.0,67,0.00,,,0.00,,2013-10-12 17:53:00,
2013-10-12 14:12:00,66.0,54.0,30.22,NNE,13,10.0,27.0,66,0.00,,,0.00,,2013-10-12 18:12:00,
2013-10-12 14:22:00,66.0,55.0,30.22,NE,39,13.0,23.0,68,0.00,,,0.00,,2013-10-12 18:22:00,
2013-10-12 14:42:00,66.0,54.0,30.23,ENE,70,12.0,24.0,66,0.00,,,0.00,,2013-10-12 18:42:00,
2013-10-12 14:52:00,67.0,55.0,30.24,NNE,17,11.0,22.0,65,0.00,,,0.00,,2013-10-12 18:52:00,
2013-10-12 15:11:00,67.0,55.0,30.24,ENE,63,13.0,23.0,66,0.00,,,0.00,,2013-10-12 19:11:00,
2013-10-12 15:22:00,66.0,56.0,30.24,ENE,58,14.0,24.0,70,0.00,,,0.00,,2013-10-12 19:22:00,
2013-10-12 15:42:00,66.0,56.0,30.24,NE,42,12.0,22.0,70,0.00,,,0.00,,2013-10-12 19:42:00,
2013-10-12 15:52:00,66.0,56.0,30.24,ENE,68,13.0,27.0,70,0.00,,,0.00,,2013-10-12 19:52:00,
2013-10-12 16:12:00,65.0,57.0,30.25,NE,49,15.0,27.0,76,0.00,,,0.00,,2013-10-12 20:12:00,
2013-10-12 16:22:00,64.0,56.0,30.25,NE,39,13.0,25.0,75,0.00,,,0.00,,2013-10-12 20:22:00,
2013-10-12 16:42:00,64.0,57.0,30.25,NNE,23,14.0,25.0,79,0.00,,,0.00,,2013-10-12 20:42:00,
2013-10-12 16:52:00,64.0,58.0,30.25,ESE,102,12.0,23.0,81,0.00,,,0.00,,2013-10-12 20:52:00,
2013-10-12 17:11:00,64.0,58.0,30.26,NE,50,11.0,28.0,80,0.00,,,0.00,,2013-10-12 21:11:00,
2013-10-12 17:22:00,63.0,58.0,30.26,ENE,70,11.0,22.0,83,0.00,,,0.00,,2013-10-12 21:22:00,
2013-10-12 17:43:00,63.0,58.0,30.26,NE,56,12.0,24.0,83,0.00,,,0.00,,2013-10-12 21:43:00,
2013-10-12 17:54:00,63.0,58.0,30.27,NNE,32,12.0,19.0,84,0.00,,,0.00,,2013-10-12 21:54:00,
2013-10-12 18:13:00,62.0,58.0,30.27,ENE,62,12.0,20.0,86,0.00,,,0.00,,2013-10-12 22:13:00,
2013-10-12 18:24:00,62.0,58.0,30.27,NE,51,11.0,23.0,86,0.00,,,0.00,,2013-10-12 22:24:00,
2013-10-12 18:54:00,61.0,57.0,30.27,NNE,33,9.0,16.0,87,0.00,,,0.00,,2013-10-12 22:54:00,
2013-10-12 19:12:00,62.0,57.0,30.27,NE,41,11.0,23.0,84,0.00,,,0.00,,2013-10-12 23:12:00,
2013-10-12 19:22:00,62.0,57.0,30.28,NE,39,17.0,27.0,83,0.00,,,0.00,,2013-10-12 23:22:00,
2013-10-12 19:42:00,61.0,56.0,30.29,NE,39,15.0,21.0,83,0.00,,,0.00,,2013-10-12 23:42:00,
2013-10-12 19:52:00,61.0,56.0,30.29,NE,39,13.0,19.0,83,0.00,,,0.00,,2013-10-12 23:52:00,
2013-10-12 20:12:00,61.0,56.0,30.30,NE,48,11.0,25.0,83,0.00,,,0.00,,2013-10-13 00:12:00,
2013-10-12 20:22:00,61.0,56.0,30.31,NE,51,12.0,22.0,83,0.00,,,0.00,,2013-10-13 00:22:00,
2013-10-12 20:42:00,60.0,55.0,30.31,NNE,24,9.0,23.0,83,0.00,,,0.00,,2013-10-13 00:42:00,
2013-10-12 20:52:00,60.0,55.0,30.32,ENE,57,10.0,25.0,83,0.00,,,0.00,,2013-10-13 00:52:00,
2013-10-12 21:12:00,60.0,55.0,30.32,NE,48,11.0,22.0,83,0.00,,,0.00,,2013-10-13 01:12:00,
2013-10-12 21:22:00,60.0,54.0,30.32,East,101,9.0,25.0,82,0.00,,,0.00,,2013-10-13 01:22:00,
2013-10-12 21:42:00,60.0,54.0,30.32,NNE,17,12.0,22.0,82,0.00,,,0.00,,2013-10-13 01:42:00,
2013-10-12 21:52:00,60.0,54.0,30.33,ESE,110,11.0,20.0,82,0.00,,,0.00,,2013-10-13 01:52:00,
2013-10-12 22:12:00,60.0,54.0,30.33,NE,43,13.0,23.0,82,0.00,,,0.00,,2013-10-13 02:12:00,
2013-10-12 22:22:00,60.0,55.0,30.33,ENE,60,8.0,21.0,83,0.00,,,0.00,,2013-10-13 02:22:00,
2013-10-12 22:42:00,59.0,54.0,30.33,ENE,72,10.0,21.0,83,0.00,,,0.00,,2013-10-13 02:42:00,
2013-10-12 22:52:00,59.0,54.0,30.33,ENE,58,10.0,20.0,83,0.00,,,0.00,,2013-10-13 02:52:00,
2013-10-12 23:12:00,59.0,54.0,30.33,NNW,342,13.0,20.0,83,0.00,,,0.00,,2013-10-13 03:12:00,
2013-10-12 23:23:00,59.0,54.0,30.33,North,355,10.0,20.0,83,0.00,,,0.00,,2013-10-13 03:23:00,
2013-10-12 23:45:00,59.0,54.0,30.33,NE,53,11.0,17.0,83,0.00,,,0.00,,2013-10-13 03:45:00,
2013-10-12 23:54:00,58.0,53.0,30.34,NNE,31,9.0,23.0,83,0.00,,,0.00,,2013-10-13 03:54:00,